createdAt,value
2023-01-03T00:02:20.075Z,92.40
2023-01-03T00:04:49.671Z,92.40
2023-01-03T00:07:33.585Z,91.90
2023-01-03T00:10:06.180Z,92.30
2023-01-03T00:12:32.865Z,92.70
2023-01-03T00:15:00.084Z,92.50
2023-01-03T00:17:27.217Z,93.30
2023-01-03T00:19:54.080Z,93.00
2023-01-03T00:22:20.891Z,92.50
2023-01-03T00:24:48.871Z,92.80
2023-01-03T00:27:16.302Z,93.20
2023-01-03T00:29:43.233Z,92.40
2023-01-03T00:32:10.405Z,93.00
2023-01-03T00:34:37.108Z,92.70
2023-01-03T00:37:04.107Z,92.70
2023-01-03T00:39:31.090Z,93.00
2023-01-03T00:41:57.940Z,93.30
2023-01-03T00:44:24.736Z,93.40
2023-01-03T00:46:51.467Z,92.80
2023-01-03T00:49:18.169Z,93.10
2023-01-03T00:51:45.085Z,93.80
2023-01-03T00:54:13.055Z,93.30
2023-01-03T00:56:42.137Z,93.50
2023-01-03T00:59:09.155Z,93.60
2023-01-03T01:01:47.536Z,93.50
2023-01-03T01:04:21.775Z,93.70
2023-01-03T01:06:50.603Z,93.90
2023-01-03T01:09:20.308Z,93.60
2023-01-03T01:11:47.637Z,93.70
2023-01-03T01:14:20.753Z,93.90
2023-01-03T01:16:54.067Z,94.00
2023-01-03T01:19:24.780Z,93.90
2023-01-03T01:21:51.675Z,93.80
2023-01-03T01:24:18.520Z,94.20
2023-01-03T01:26:46.253Z,94.50
2023-01-03T01:29:14.289Z,94.00
2023-01-03T01:31:41.898Z,93.90
2023-01-03T01:34:08.952Z,94.20
2023-01-03T01:36:37.637Z,94.10
2023-01-03T01:39:07.797Z,93.80
2023-01-03T01:41:54.610Z,93.90
2023-01-03T01:44:40.220Z,94.30
2023-01-03T01:47:43.914Z,94.30
2023-01-03T01:50:10.535Z,94.00
2023-01-03T01:52:39.422Z,94.20
2023-01-03T01:55:09.704Z,94.40
2023-01-03T01:57:38.658Z,94.50
2023-01-03T02:00:07.994Z,94.70
2023-01-03T02:02:35.075Z,94.10
2023-01-03T02:05:06.561Z,93.90
2023-01-03T02:07:34.233Z,94.10
2023-01-03T02:10:01.209Z,94.00
2023-01-03T02:12:55.291Z,93.70
2023-01-03T02:15:40.261Z,94.00
2023-01-03T02:18:07.135Z,93.90
2023-01-03T02:20:52.040Z,94.00
2023-01-03T02:23:56.226Z,94.60
2023-01-03T02:26:48.966Z,94.50
2023-01-03T02:29:22.389Z,94.40
2023-01-03T02:32:07.509Z,94.50
2023-01-03T02:34:49.532Z,94.90
2023-01-03T02:37:29.187Z,94.70
2023-01-03T02:40:01.941Z,94.90
2023-01-03T02:42:55.626Z,94.90
2023-01-03T02:46:01.423Z,95.10
2023-01-03T02:48:56.250Z,95.10
2023-01-03T02:51:43.284Z,95.30
2023-01-03T02:54:14.617Z,95.70
2023-01-03T02:57:04.197Z,95.70
2023-01-03T02:59:36.818Z,95.70
2023-01-03T03:02:05.430Z,95.30
2023-01-03T03:04:34.279Z,96.00
2023-01-03T03:07:22.591Z,95.30
2023-01-03T03:10:08.396Z,95.40
2023-01-03T03:12:56.646Z,95.30
2023-01-03T03:15:26.536Z,95.30
2023-01-03T03:17:57.221Z,95.50
2023-01-03T03:20:42.483Z,96.00
2023-01-03T03:23:30.497Z,95.60
2023-01-03T03:26:00.635Z,96.10
2023-01-03T03:28:36.391Z,96.00
2023-01-03T03:31:19.269Z,96.30
2023-01-03T03:33:50.993Z,96.50
2023-01-03T03:36:32.698Z,96.40
2023-01-03T03:38:59.350Z,96.50
2023-01-03T03:41:55.322Z,96.40
2023-01-03T03:44:48.503Z,96.70
2023-01-03T03:47:45.614Z,96.90
2023-01-03T03:50:32.840Z,96.30
2023-01-03T03:53:01.374Z,96.70
2023-01-03T03:55:36.785Z,96.90
2023-01-03T03:58:06.894Z,97.30
2023-01-03T04:00:38.323Z,97.30
2023-01-03T04:03:05.444Z,97.50
2023-01-03T04:05:36.586Z,97.40
2023-01-03T04:08:03.470Z,97.60
2023-01-03T04:10:34.120Z,97.10
2023-01-03T04:13:04.220Z,97.00
2023-01-03T04:15:30.958Z,96.80
2023-01-03T04:17:57.609Z,97.10
2023-01-03T04:20:24.248Z,97.70
2023-01-03T04:22:50.928Z,98.00
2023-01-03T04:25:17.580Z,98.20
2023-01-03T04:27:44.380Z,98.60
2023-01-03T04:30:11.615Z,98.10
2023-01-03T04:32:38.738Z,98.30
2023-01-03T04:35:05.955Z,98.00
2023-01-03T04:37:32.892Z,98.40
2023-01-03T04:39:59.537Z,97.60
2023-01-03T04:42:44.876Z,98.20
2023-01-03T04:45:11.931Z,98.30
2023-01-03T04:47:38.565Z,97.90
2023-01-03T04:50:05.613Z,97.50
2023-01-03T04:52:32.285Z,97.90
2023-01-03T04:54:58.919Z,96.80
2023-01-03T04:57:25.586Z,98.00
2023-01-03T04:59:52.239Z,98.10
2023-01-03T05:02:19.075Z,98.10
2023-01-03T05:04:45.928Z,98.00
2023-01-03T05:07:12.654Z,97.80
2023-01-03T05:09:39.287Z,98.00
2023-01-03T05:12:06.140Z,97.60
2023-01-03T05:14:32.901Z,97.80
2023-01-03T05:16:59.648Z,96.90
2023-01-03T05:19:26.766Z,96.70
2023-01-03T05:22:12.117Z,97.40
2023-01-03T05:24:58.977Z,96.70
2023-01-03T05:27:25.598Z,97.20
2023-01-03T05:29:53.185Z,97.10
2023-01-03T05:32:20.674Z,97.30
2023-01-03T05:34:47.380Z,97.90
2023-01-03T05:37:14.087Z,97.90
2023-01-03T05:39:40.736Z,97.40
2023-01-03T05:42:07.517Z,98.30
2023-01-03T05:44:34.600Z,98.00
2023-01-03T05:47:02.855Z,97.20
2023-01-03T05:49:29.620Z,97.70
2023-01-03T05:51:56.299Z,98.00
2023-01-03T05:54:23.001Z,97.70
2023-01-03T05:56:51.051Z,97.00
2023-01-03T05:59:18.155Z,97.20
2023-01-03T06:01:44.952Z,97.70
2023-01-03T06:04:11.688Z,97.60
2023-01-03T06:06:38.445Z,97.50
2023-01-03T06:09:05.402Z,97.60
2023-01-03T06:11:32.040Z,97.50
2023-01-03T06:13:58.718Z,97.80
2023-01-03T06:16:44.266Z,97.70
2023-01-03T06:19:11.030Z,97.70
2023-01-03T06:21:37.817Z,97.80
2023-01-03T06:24:04.939Z,97.10
2023-01-03T06:26:31.538Z,97.70
2023-01-03T06:28:58.868Z,97.70
2023-01-03T06:31:25.695Z,98.20
2023-01-03T06:33:52.507Z,97.60
2023-01-03T06:36:20.913Z,98.10
2023-01-03T06:38:47.731Z,97.60
2023-01-03T06:41:15.354Z,97.90
2023-01-03T06:43:42.218Z,97.60
2023-01-03T06:46:29.650Z,97.50
2023-01-03T06:49:14.823Z,97.90
2023-01-03T06:52:00.153Z,97.30
2023-01-03T06:54:29.241Z,97.90
2023-01-03T06:56:56.160Z,97.30
2023-01-03T06:59:23.543Z,96.60
2023-01-03T07:01:51.589Z,97.40
2023-01-03T07:04:18.937Z,97.30
2023-01-03T07:06:46.536Z,96.80
2023-01-03T07:09:13.929Z,96.60
2023-01-03T07:11:41.096Z,96.70
2023-01-03T07:14:09.405Z,97.00
2023-01-03T07:16:37.535Z,96.90
2023-01-03T07:19:05.859Z,96.10
2023-01-03T07:21:33.796Z,96.10
2023-01-03T07:24:01.828Z,95.90
2023-01-03T07:26:33.618Z,95.70
2023-01-03T07:29:01.264Z,96.20
2023-01-03T07:31:28.246Z,95.50
2023-01-03T07:33:55.157Z,95.40
2023-01-03T07:36:22.117Z,95.10
2023-01-03T07:38:48.836Z,94.70
2023-01-03T07:41:16.147Z,94.60
2023-01-03T07:43:45.723Z,95.10
2023-01-03T07:46:16.076Z,95.10
2023-01-03T07:48:44.271Z,95.10
2023-01-03T07:51:13.520Z,94.60
2023-01-03T07:53:40.506Z,94.80
2023-01-03T07:56:13.156Z,95.10
2023-01-03T07:58:41.943Z,95.00
2023-01-03T08:01:14.972Z,95.70
2023-01-03T08:03:42.476Z,95.40
2023-01-03T08:06:11.692Z,95.00
2023-01-03T08:08:38.732Z,95.50
2023-01-03T08:11:24.576Z,95.40
2023-01-03T08:13:51.567Z,95.40
2023-01-03T08:16:19.246Z,95.70
2023-01-03T08:18:46.464Z,96.60
2023-01-03T08:21:14.892Z,96.40
2023-01-03T08:23:42.545Z,96.80
2023-01-03T08:26:14.979Z,96.30
2023-01-03T08:28:42.973Z,96.90
2023-01-03T08:31:19.725Z,97.00
2023-01-03T08:34:13.607Z,96.80
2023-01-03T08:36:55.893Z,97.00
2023-01-03T08:39:26.164Z,97.00
2023-01-03T08:41:57.237Z,96.70
2023-01-03T08:44:23.840Z,97.80
2023-01-03T08:46:52.456Z,97.30
2023-01-03T08:49:19.563Z,97.80
2023-01-03T08:51:46.313Z,98.40
2023-01-03T08:54:13.092Z,99.30
2023-01-03T08:56:40.107Z,98.80
2023-01-03T08:59:07.148Z,98.70
2023-01-03T09:01:34.206Z,98.50
2023-01-03T09:04:01.104Z,98.80
2023-01-03T09:06:27.904Z,99.10
2023-01-03T09:08:54.543Z,99.70
2023-01-03T09:11:21.222Z,99.90
2023-01-03T09:13:48.075Z,99.30
2023-01-03T09:16:16.482Z,99.60
2023-01-03T09:18:43.663Z,99.20
2023-01-03T09:21:10.329Z,99.70
2023-01-03T09:23:37.112Z,99.20
2023-01-03T09:26:07.043Z,99.20
2023-01-03T09:28:34.029Z,99.20
2023-01-03T09:31:00.674Z,99.20
2023-01-03T09:33:27.341Z,99.20
2023-01-03T09:35:54.901Z,98.40
2023-01-03T09:38:22.595Z,98.40
2023-01-03T09:40:59.286Z,98.00
2023-01-03T09:43:32.494Z,98.80
2023-01-03T09:46:01.599Z,98.80
2023-01-03T09:48:37.355Z,97.90
2023-01-03T09:51:29.796Z,97.80
2023-01-03T09:54:15.777Z,98.20
2023-01-03T09:57:01.031Z,98.40
2023-01-03T09:59:48.166Z,98.50
2023-01-03T10:02:52.640Z,98.50
2023-01-03T10:05:44.178Z,98.30
2023-01-03T10:08:29.319Z,98.40
2023-01-03T10:11:02.056Z,97.50
2023-01-03T10:14:00.228Z,98.40
2023-01-03T10:17:01.874Z,99.20
2023-01-03T10:19:41.416Z,99.40
2023-01-03T10:22:28.331Z,99.50
2023-01-03T10:25:05.324Z,99.20
2023-01-03T10:27:34.813Z,98.30
2023-01-03T10:30:04.210Z,98.50
2023-01-03T10:32:44.866Z,98.40
2023-01-03T10:35:21.743Z,98.60
2023-01-03T10:37:51.503Z,97.50
2023-01-03T10:40:18.440Z,97.20
2023-01-03T10:42:45.871Z,97.40
2023-01-03T10:45:18.667Z,97.20
2023-01-03T10:48:00.239Z,97.90
2023-01-03T10:50:27.713Z,97.70
2023-01-03T10:53:05.365Z,99.00
2023-01-03T10:55:34.399Z,98.60
2023-01-03T10:58:17.501Z,99.10
2023-01-03T11:00:44.293Z,99.50
2023-01-03T11:03:21.869Z,98.90
2023-01-03T11:06:09.464Z,99.90
2023-01-03T11:08:45.389Z,99.90
2023-01-03T11:11:34.964Z,99.90
2023-01-03T11:14:24.909Z,99.90
2023-01-03T11:17:13.083Z,99.90
2023-01-03T11:19:39.927Z,99.90
2023-01-03T11:22:22.138Z,99.90
2023-01-03T11:25:14.622Z,99.90
2023-01-03T11:28:11.959Z,99.90
2023-01-03T11:31:00.499Z,99.90
2023-01-03T11:33:40.893Z,99.90
2023-01-03T11:36:30.826Z,99.90
2023-01-03T11:39:03.556Z,99.90
2023-01-03T11:41:58.126Z,99.90
2023-01-03T11:45:10.234Z,99.90
2023-01-03T11:47:36.895Z,99.90
2023-01-03T11:50:30.534Z,99.90
2023-01-03T11:53:04.691Z,99.90
2023-01-03T11:55:46.083Z,99.90
2023-01-03T11:58:34.295Z,99.90
2023-01-03T12:01:10.011Z,99.90
2023-01-03T12:04:01.357Z,99.90
2023-01-03T12:06:29.131Z,99.90
2023-01-03T12:09:08.116Z,99.90
2023-01-03T12:12:07.723Z,99.90
2023-01-03T12:14:52.342Z,99.90
2023-01-03T12:17:44.050Z,99.90
2023-01-03T12:20:18.710Z,99.90
2023-01-03T12:23:12.824Z,99.90
2023-01-03T12:25:43.625Z,99.90
2023-01-03T12:28:10.380Z,99.90
2023-01-03T12:30:59.374Z,99.90
2023-01-03T12:33:48.911Z,99.90
2023-01-03T12:36:33.829Z,99.90
2023-01-03T12:39:08.375Z,99.90
2023-01-03T12:42:01.260Z,99.90
2023-01-03T12:44:32.526Z,99.90
2023-01-03T12:47:01.631Z,99.90
2023-01-03T12:49:51.027Z,99.90
2023-01-03T12:52:20.402Z,99.90
2023-01-03T12:54:52.799Z,99.90
2023-01-03T12:57:47.403Z,99.90
2023-01-03T13:00:36.952Z,99.90
2023-01-03T13:03:21.669Z,99.90
2023-01-03T13:05:54.494Z,99.90
2023-01-03T13:08:43.997Z,99.90
2023-01-03T13:11:31.198Z,99.90
2023-01-03T13:14:25.985Z,99.90
2023-01-03T13:17:15.652Z,99.90
2023-01-03T13:19:51.773Z,99.90
2023-01-03T13:22:34.051Z,99.90
2023-01-03T13:25:31.881Z,99.90
2023-01-03T13:28:20.146Z,99.90
2023-01-03T13:30:47.463Z,99.90
2023-01-03T13:33:16.680Z,99.90
2023-01-03T13:35:46.597Z,99.80
2023-01-03T13:38:35.737Z,99.30
2023-01-03T13:41:18.590Z,99.20
2023-01-03T13:43:50.007Z,98.40
2023-01-03T13:46:31.841Z,97.70
2023-01-03T13:49:07.492Z,97.50
2023-01-03T13:51:40.416Z,98.00
2023-01-03T13:54:13.048Z,97.00
2023-01-03T13:56:42.810Z,97.10
2023-01-03T13:59:15.444Z,97.10
2023-01-03T14:01:45.562Z,96.80
2023-01-03T14:07:10.851Z,96.20
2023-01-03T14:09:55.327Z,94.70
2023-01-03T14:12:53.144Z,95.40
2023-01-03T14:15:26.259Z,95.30
2023-01-03T14:18:00.145Z,96.10
2023-01-03T14:20:32.953Z,95.20
2023-01-03T14:23:23.977Z,95.20
2023-01-03T14:25:53.284Z,94.70
2023-01-03T14:28:29.930Z,95.60
2023-01-03T14:31:02.988Z,95.50
2023-01-03T14:34:07.884Z,94.70
2023-01-03T14:36:46.598Z,95.50
2023-01-03T14:39:21.952Z,95.50
2023-01-03T14:41:48.865Z,94.00
2023-01-03T14:44:16.708Z,94.20
2023-01-03T14:46:53.526Z,94.00
2023-01-03T14:49:33.735Z,93.70
2023-01-03T14:52:06.071Z,92.40
2023-01-03T14:54:33.131Z,92.20
2023-01-03T14:57:00.924Z,93.20
2023-01-03T14:59:27.957Z,92.50
2023-01-03T15:01:55.283Z,92.70
2023-01-03T15:04:23.692Z,92.00
2023-01-03T15:07:04.950Z,91.60
2023-01-03T15:09:36.647Z,91.70
2023-01-03T15:12:05.248Z,91.60
2023-01-03T15:14:35.249Z,91.40
2023-01-03T15:17:12.165Z,91.40
2023-01-03T15:19:53.752Z,90.50
2023-01-03T15:22:21.768Z,90.70
2023-01-03T15:25:06.790Z,90.80
2023-01-03T15:27:34.105Z,91.40
2023-01-03T15:30:19.149Z,91.20
2023-01-03T15:32:57.517Z,90.40
2023-01-03T15:35:36.108Z,90.20
2023-01-03T15:38:06.477Z,90.00
2023-01-03T15:40:33.735Z,90.00
2023-01-03T15:43:21.873Z,90.10
2023-01-03T15:45:55.511Z,90.00
2023-01-03T15:48:22.596Z,90.40
2023-01-03T15:50:51.928Z,90.80
2023-01-03T15:53:39.207Z,91.30
2023-01-03T15:56:19.970Z,90.70
2023-01-03T15:58:51.263Z,90.80
2023-01-03T16:01:19.537Z,91.00
2023-01-03T16:03:48.082Z,91.70
2023-01-03T16:06:16.417Z,92.00
2023-01-03T16:08:43.216Z,92.50
2023-01-03T16:11:18.347Z,92.80
2023-01-03T16:13:51.189Z,92.80
2023-01-03T16:16:25.376Z,93.60
2023-01-03T16:18:53.165Z,93.30
2023-01-03T16:21:20.042Z,93.40
2023-01-03T16:23:46.941Z,94.20
2023-01-03T16:26:15.085Z,94.30
2023-01-03T16:28:41.835Z,94.50
2023-01-03T16:31:19.502Z,94.60
2023-01-03T16:33:48.536Z,94.20
2023-01-03T16:36:39.635Z,94.20
2023-01-03T16:39:27.098Z,94.30
2023-01-03T16:42:13.207Z,93.90
2023-01-03T16:44:48.823Z,94.00
2023-01-03T16:47:30.389Z,94.10
2023-01-03T16:50:03.449Z,93.90
2023-01-03T16:52:41.177Z,93.80
2023-01-03T16:55:29.953Z,93.20
2023-01-03T16:57:57.431Z,93.00
2023-01-03T17:00:30.008Z,92.50
2023-01-03T17:03:00.107Z,93.00
2023-01-03T17:05:28.471Z,93.20
2023-01-03T17:08:05.691Z,92.60
2023-01-03T17:10:40.587Z,91.80
2023-01-03T17:13:13.048Z,91.80
2023-01-03T17:15:41.462Z,92.10
2023-01-03T17:18:18.110Z,91.90
2023-01-03T17:20:45.460Z,91.90
2023-01-03T17:23:12.600Z,91.60
2023-01-03T17:25:40.293Z,91.70
2023-01-03T17:28:09.845Z,91.50
2023-01-03T17:30:37.776Z,91.70
2023-01-03T17:33:04.576Z,91.90
2023-01-03T17:35:31.506Z,91.60
2023-01-03T17:38:24.640Z,91.70
2023-01-03T17:40:47.372Z,92.10
2023-01-03T17:43:25.031Z,92.40
2023-01-03T17:46:16.127Z,92.00
2023-01-03T17:49:06.284Z,91.60
2023-01-03T17:51:33.050Z,91.40
2023-01-03T17:53:59.869Z,91.70
2023-01-03T17:56:27.317Z,91.50
2023-01-03T17:58:56.439Z,91.30
2023-01-03T18:01:23.957Z,91.20
2023-01-03T18:03:50.948Z,90.90
2023-01-03T18:06:22.842Z,90.70
2023-01-03T18:08:50.960Z,90.90
2023-01-03T18:11:20.605Z,91.10
2023-01-03T18:13:48.871Z,91.40
2023-01-03T18:16:19.300Z,91.50
2023-01-03T18:18:46.501Z,91.70
2023-01-03T18:21:22.656Z,91.50
2023-01-03T18:23:59.028Z,91.50
2023-01-03T18:26:36.702Z,91.50
2023-01-03T18:29:05.154Z,91.90
2023-01-03T18:31:32.407Z,91.60
2023-01-03T18:34:04.312Z,92.00
2023-01-03T18:36:43.446Z,91.80
2023-01-03T18:39:22.511Z,92.50
2023-01-03T18:41:49.303Z,92.60
2023-01-03T18:44:21.141Z,92.90
2023-01-03T18:46:48.195Z,92.80
2023-01-03T18:49:15.107Z,92.40
2023-01-03T18:51:42.147Z,92.80
2023-01-03T18:54:12.862Z,93.00
2023-01-03T18:56:40.517Z,93.50
2023-01-03T18:59:14.344Z,93.20
2023-01-03T19:01:41.107Z,93.50
2023-01-03T19:04:08.014Z,93.80
2023-01-03T19:06:35.207Z,93.40
2023-01-03T19:09:04.541Z,93.80
2023-01-03T19:11:34.216Z,93.70
2023-01-03T19:14:03.035Z,93.70
2023-01-03T19:16:34.543Z,94.10
2023-01-03T19:19:02.020Z,94.10
2023-01-03T19:21:42.741Z,94.00
2023-01-03T19:24:43.247Z,94.30
2023-01-03T19:27:23.578Z,94.20
2023-01-03T19:29:51.718Z,94.60
2023-01-03T19:32:21.908Z,94.60
2023-01-03T19:34:48.675Z,94.40
2023-01-03T19:37:15.651Z,94.50
2023-01-03T19:39:42.499Z,93.80
2023-01-03T19:42:34.271Z,93.80
2023-01-03T19:45:03.097Z,94.30
2023-01-03T19:47:29.792Z,92.40
2023-01-03T19:49:57.609Z,92.80
2023-01-03T19:52:24.956Z,92.80
2023-01-03T19:54:51.727Z,92.30
2023-01-03T19:57:25.259Z,92.40
2023-01-03T19:59:54.529Z,91.90
2023-01-03T20:02:27.629Z,91.50
2023-01-03T20:04:55.687Z,91.50
2023-01-03T20:07:22.559Z,92.30
2023-01-03T20:09:49.285Z,92.10
2023-01-03T20:12:24.225Z,91.30
2023-01-03T20:14:52.423Z,91.20
2023-01-03T20:17:22.840Z,91.40
2023-01-03T20:19:49.993Z,90.80
2023-01-03T20:22:53.456Z,91.60
2023-01-03T20:25:27.574Z,90.80
2023-01-03T20:27:55.877Z,90.80
2023-01-03T20:30:27.117Z,90.80
2023-01-03T20:32:53.879Z,90.90
2023-01-03T20:36:09.525Z,90.90
2023-01-03T20:38:11.739Z,90.30
2023-01-03T20:40:39.218Z,90.20
2023-01-03T20:43:06.234Z,89.50
2023-01-03T20:45:33.039Z,90.00
2023-01-03T20:47:59.807Z,90.00
2023-01-03T20:50:28.125Z,90.40
2023-01-03T20:52:55.346Z,90.70
2023-01-03T20:55:24.833Z,90.10
2023-01-03T20:57:52.095Z,89.10
2023-01-03T21:00:28.134Z,90.50
2023-01-03T21:02:55.149Z,90.10
2023-01-03T21:05:22.535Z,90.20
2023-01-03T21:08:08.299Z,90.20
2023-01-03T21:10:41.099Z,89.90
2023-01-03T21:13:08.670Z,90.10
2023-01-03T21:15:35.928Z,90.40
2023-01-03T21:18:03.881Z,90.00
2023-01-03T21:20:32.055Z,90.20
2023-01-03T21:22:59.399Z,89.40
2023-01-03T21:25:30.023Z,90.10
2023-01-03T21:27:56.858Z,90.10
2023-01-03T21:30:24.825Z,88.60
2023-01-03T21:32:52.011Z,89.10
2023-01-03T21:35:22.950Z,89.30
2023-01-03T21:37:51.177Z,90.20
2023-01-03T21:40:25.918Z,88.50
2023-01-03T21:43:04.094Z,90.10
2023-01-03T21:45:52.946Z,89.60
2023-01-03T21:48:19.687Z,90.10
2023-01-03T21:50:49.781Z,90.10
2023-01-03T21:53:21.869Z,90.50
2023-01-03T21:55:49.419Z,90.40
2023-01-03T21:58:23.434Z,90.70
2023-01-03T22:00:50.245Z,89.30
2023-01-03T22:03:36.280Z,89.40
2023-01-03T22:06:08.285Z,90.00
2023-01-03T22:08:35.013Z,90.30
2023-01-03T22:11:01.822Z,90.50
2023-01-03T22:13:28.439Z,89.90
2023-01-03T22:15:55.563Z,89.30
2023-01-03T22:18:22.358Z,91.60
2023-01-03T22:20:49.032Z,90.70
2023-01-03T22:23:18.907Z,90.30
2023-01-03T22:25:45.814Z,89.70
2023-01-03T22:28:12.637Z,90.00
2023-01-03T22:30:40.025Z,89.70
2023-01-03T22:33:06.809Z,90.10
2023-01-03T22:35:33.600Z,88.30
2023-01-03T22:38:00.471Z,90.10
2023-01-03T22:40:27.309Z,90.10
2023-01-03T22:42:54.898Z,90.60
2023-01-03T22:45:21.612Z,90.70
2023-01-03T22:47:48.335Z,90.60
2023-01-03T22:50:15.093Z,90.70
2023-01-03T22:52:42.187Z,90.00
2023-01-03T22:55:09.064Z,91.30
2023-01-03T22:57:35.790Z,89.80
2023-01-03T23:00:03.422Z,89.50
2023-01-03T23:02:40.842Z,89.70
2023-01-03T23:05:08.441Z,90.00
2023-01-03T23:07:35.110Z,89.60
2023-01-03T23:10:01.873Z,90.00
2023-01-03T23:12:46.959Z,89.20
2023-01-03T23:15:13.595Z,88.50
2023-01-03T23:17:58.393Z,89.50
2023-01-03T23:20:31.579Z,87.70
2023-01-03T23:23:02.815Z,86.90
2023-01-03T23:25:31.236Z,87.10
2023-01-03T23:27:58.166Z,87.50
2023-01-03T23:30:25.096Z,88.00
2023-01-03T23:32:51.907Z,87.60
2023-01-03T23:35:18.656Z,88.20
2023-01-03T23:37:48.887Z,87.20
2023-01-03T23:40:15.650Z,88.50
2023-01-03T23:42:42.398Z,88.10
2023-01-03T23:45:09.444Z,88.70
2023-01-03T23:47:36.347Z,89.00
2023-01-03T23:50:03.151Z,89.80
2023-01-03T23:52:29.785Z,90.40
2023-01-03T23:55:01.600Z,86.30
2023-01-03T23:57:29.306Z,87.30
2023-01-03T23:59:55.956Z,87.80
